sensor_id;sensor_type;location;lat;lon;timestamp;pressure;altitude;pressure_sealevel;temperature
19102;BMP280;9683;49.028;12.064;2023-05-14T00:02:13;97260.88;;;15.79
19102;BMP280;9683;49.028;12.064;2023-05-14T00:04:41;97259.25;;;15.78
19102;BMP280;9683;49.028;12.064;2023-05-14T00:07:08;97255.75;;;15.73
19102;BMP280;9683;49.028;12.064;2023-05-14T00:09:34;97256.50;;;15.68
19102;BMP280;9683;49.028;12.064;2023-05-14T00:12:01;97244.66;;;15.64
19102;BMP280;9683;49.028;12.064;2023-05-14T00:14:28;97254.59;;;15.64
19102;BMP280;9683;49.028;12.064;2023-05-14T00:16:54;97245.72;;;15.63
19102;BMP280;9683;49.028;12.064;2023-05-14T00:19:21;97242.22;;;15.63
19102;BMP280;9683;49.028;12.064;2023-05-14T00:21:49;97244.09;;;15.62
19102;BMP280;9683;49.028;12.064;2023-05-14T00:24:16;97243.28;;;15.62
19102;BMP280;9683;49.028;12.064;2023-05-14T00:26:42;97220.69;;;15.52
19102;BMP280;9683;49.028;12.064;2023-05-14T00:29:09;97231.72;;;15.56
19102;BMP280;9683;49.028;12.064;2023-05-14T00:31:36;97235.50;;;15.60
19102;BMP280;9683;49.028;12.064;2023-05-14T00:34:02;97236.28;;;15.55
19102;BMP280;9683;49.028;12.064;2023-05-14T00:36:29;97223.84;;;15.49
19102;BMP280;9683;49.028;12.064;2023-05-14T00:38:57;97240.06;;;15.59
19102;BMP280;9683;49.028;12.064;2023-05-14T00:41:24;97241.94;;;15.59
19102;BMP280;9683;49.028;12.064;2023-05-14T00:43:51;97237.91;;;15.56
19102;BMP280;9683;49.028;12.064;2023-05-14T00:46:17;97238.19;;;15.60
19102;BMP280;9683;49.028;12.064;2023-05-14T00:48:45;97232.56;;;15.62
19102;BMP280;9683;49.028;12.064;2023-05-14T00:51:12;97243.28;;;15.62
19102;BMP280;9683;49.028;12.064;2023-05-14T00:53:38;97240.34;;;15.63
19102;BMP280;9683;49.028;12.064;2023-05-14T00:56:07;97236.88;;;15.63
19102;BMP280;9683;49.028;12.064;2023-05-14T00:58:34;97234.47;;;15.61
19102;BMP280;9683;49.028;12.064;2023-05-14T01:01:00;97236.03;;;15.57
19102;BMP280;9683;49.028;12.064;2023-05-14T01:03:28;97230.66;;;15.57
19102;BMP280;9683;49.028;12.064;2023-05-14T01:06:01;97230.09;;;15.55
19102;BMP280;9683;49.028;12.064;2023-05-14T01:08:35;97206.84;;;15.39
19102;BMP280;9683;49.028;12.064;2023-05-14T01:11:11;97238.72;;;15.57
19102;BMP280;9683;49.028;12.064;2023-05-14T01:13:45;97231.19;;;15.59
19102;BMP280;9683;49.028;12.064;2023-05-14T01:16:16;97227.72;;;15.58
19102;BMP280;9683;49.028;12.064;2023-05-14T01:18:45;97213.72;;;15.51
19102;BMP280;9683;49.028;12.064;2023-05-14T01:21:33;97224.50;;;15.56
19102;BMP280;9683;49.028;12.064;2023-05-14T01:24:02;97209.69;;;15.54
19102;BMP280;9683;49.028;12.064;2023-05-14T01:26:29;97215.34;;;15.52
19102;BMP280;9683;49.028;12.064;2023-05-14T01:29:00;97215.63;;;15.56
19102;BMP280;9683;49.028;12.064;2023-05-14T01:31:30;97201.56;;;15.49
19102;BMP280;9683;49.028;12.064;2023-05-14T01:33:59;97211.84;;;15.52
19102;BMP280;9683;49.028;12.064;2023-05-14T01:36:28;97208.88;;;15.53
19102;BMP280;9683;49.028;12.064;2023-05-14T01:38:57;97209.44;;;15.55
19102;BMP280;9683;49.028;12.064;2023-05-14T01:41:25;97212.94;;;15.56
19102;BMP280;9683;49.028;12.064;2023-05-14T01:43:52;97212.94;;;15.56
19102;BMP280;9683;49.028;12.064;2023-05-14T01:46:19;97219.38;;;15.55
19102;BMP280;9683;49.028;12.064;2023-05-14T01:48:48;97211.31;;;15.55
19102;BMP280;9683;49.028;12.064;2023-05-14T01:51:15;97208.63;;;15.55
19102;BMP280;9683;49.028;12.064;2023-05-14T01:53:42;97211.31;;;15.55
19102;BMP280;9683;49.028;12.064;2023-05-14T01:56:09;97193.50;;;15.44
19102;BMP280;9683;49.028;12.064;2023-05-14T01:58:36;97214.75;;;15.50
19102;BMP280;9683;49.028;12.064;2023-05-14T02:01:02;97200.84;;;15.53
19102;BMP280;9683;49.028;12.064;2023-05-14T02:03:29;97206.19;;;15.53
19102;BMP280;9683;49.028;12.064;2023-05-14T02:05:58;97200.28;;;15.51
19102;BMP280;9683;49.028;12.064;2023-05-14T02:08:24;97207.53;;;15.51
19102;BMP280;9683;49.028;12.064;2023-05-14T02:10:52;97204.91;;;15.56
19102;BMP280;9683;49.028;12.064;2023-05-14T02:13:19;97202.22;;;15.56
19102;BMP280;9683;49.028;12.064;2023-05-14T02:15:46;97193.06;;;15.52
19102;BMP280;9683;49.028;12.064;2023-05-14T02:18:12;97202.75;;;15.58
19102;BMP280;9683;49.028;12.064;2023-05-14T02:20:39;97204.63;;;15.57
19102;BMP280;9683;49.028;12.064;2023-05-14T02:23:05;97193.88;;;15.52
19102;BMP280;9683;49.028;12.064;2023-05-14T02:25:32;97192.72;;;15.48
19102;BMP280;9683;49.028;12.064;2023-05-14T02:28:00;97193.50;;;15.49
19102;BMP280;9683;49.028;12.064;2023-05-14T02:30:27;97191.06;;;15.42
19102;BMP280;9683;49.028;12.064;2023-05-14T02:32:54;97201.78;;;15.42
19102;BMP280;9683;49.028;12.064;2023-05-14T02:35:20;97194.81;;;15.41
19102;BMP280;9683;49.028;12.064;2023-05-14T02:37:47;97188.63;;;15.41
19102;BMP280;9683;49.028;12.064;2023-05-14T02:40:14;97190.75;;;15.39
19102;BMP280;9683;49.028;12.064;2023-05-14T02:42:41;97176.25;;;15.35
19102;BMP280;9683;49.028;12.064;2023-05-14T02:45:09;97174.88;;;15.32
19102;BMP280;9683;49.028;12.064;2023-05-14T02:47:36;97184.25;;;15.30
19102;BMP280;9683;49.028;12.064;2023-05-14T02:50:04;97177.22;;;15.24
19102;BMP280;9683;49.028;12.064;2023-05-14T02:52:30;97180.16;;;15.22
19102;BMP280;9683;49.028;12.064;2023-05-14T02:54:57;97174.50;;;15.19
19102;BMP280;9683;49.028;12.064;2023-05-14T02:57:26;97172.56;;;15.14
19102;BMP280;9683;49.028;12.064;2023-05-14T02:59:53;97162.03;;;15.07
19102;BMP280;9683;49.028;12.064;2023-05-14T03:02:21;97167.91;;;15.04
19102;BMP280;9683;49.028;12.064;2023-05-14T03:04:47;97168.69;;;15.00
19102;BMP280;9683;49.028;12.064;2023-05-14T03:07:14;97114.53;;;14.71
19102;BMP280;9683;49.028;12.064;2023-05-14T03:09:41;97172.97;;;15.01
19102;BMP280;9683;49.028;12.064;2023-05-14T03:12:08;97160.13;;;15.03
19102;BMP280;9683;49.028;12.064;2023-05-14T03:14:34;97150.88;;;14.89
19102;BMP280;9683;49.028;12.064;2023-05-14T03:17:01;97158.97;;;14.94
19102;BMP280;9683;49.028;12.064;2023-05-14T03:19:29;97147.56;;;14.77
19102;BMP280;9683;49.028;12.064;2023-05-14T03:21:56;97159.09;;;14.77
19102;BMP280;9683;49.028;12.064;2023-05-14T03:24:22;97159.84;;;14.73
19102;BMP280;9683;49.028;12.064;2023-05-14T03:26:49;97160.88;;;14.72
19102;BMP280;9683;49.028;12.064;2023-05-14T03:29:16;97157.38;;;14.71
19102;BMP280;9683;49.028;12.064;2023-05-14T03:31:42;97160.06;;;14.71
19102;BMP280;9683;49.028;12.064;2023-05-14T03:34:09;97157.38;;;14.71
19102;BMP280;9683;49.028;12.064;2023-05-14T03:36:37;97149.88;;;14.68
19102;BMP280;9683;49.028;12.064;2023-05-14T03:39:04;97136.78;;;14.50
19102;BMP280;9683;49.028;12.064;2023-05-14T03:41:31;97161.28;;;14.58
19102;BMP280;9683;49.028;12.064;2023-05-14T03:43:57;97146.41;;;14.46
19102;BMP280;9683;49.028;12.064;2023-05-14T03:46:24;97151.25;;;14.49
19102;BMP280;9683;49.028;12.064;2023-05-14T03:48:51;97157.97;;;14.51
19102;BMP280;9683;49.028;12.064;2023-05-14T03:51:17;97156.03;;;14.47
19102;BMP280;9683;49.028;12.064;2023-05-14T03:53:45;97163.81;;;14.48
19102;BMP280;9683;49.028;12.064;2023-05-14T03:56:12;97138.91;;;14.26
19102;BMP280;9683;49.028;12.064;2023-05-14T03:58:39;97160.34;;;14.31
19102;BMP280;9683;49.028;12.064;2023-05-14T04:01:06;97144.41;;;14.19
19102;BMP280;9683;49.028;12.064;2023-05-14T04:03:32;97139.56;;;14.16
19102;BMP280;9683;49.028;12.064;2023-05-14T04:06:00;97151.09;;;14.17
19102;BMP280;9683;49.028;12.064;2023-05-14T04:08:26;97148.03;;;14.08
19102;BMP280;9683;49.028;12.064;2023-05-14T04:10:54;97149.59;;;14.04
19102;BMP280;9683;49.028;12.064;2023-05-14T04:13:21;97139.38;;;14.01
19102;BMP280;9683;49.028;12.064;2023-05-14T04:15:49;97147.34;;;13.96
19102;BMP280;9683;49.028;12.064;2023-05-14T04:18:15;97148.06;;;13.92
19102;BMP280;9683;49.028;12.064;2023-05-14T04:20:42;97140.56;;;13.89
19102;BMP280;9683;49.028;12.064;2023-05-14T04:23:09;97150.81;;;13.97
19102;BMP280;9683;49.028;12.064;2023-05-14T04:25:35;97144.41;;;13.98
19102;BMP280;9683;49.028;12.064;2023-05-14T04:28:04;97146.59;;;14.01
19102;BMP280;9683;49.028;12.064;2023-05-14T04:30:30;97142.53;;;13.98
19102;BMP280;9683;49.028;12.064;2023-05-14T04:32:57;97150.09;;;14.01
19102;BMP280;9683;49.028;12.064;2023-05-14T04:35:24;97148.59;;;14.10
19102;BMP280;9683;49.028;12.064;2023-05-14T04:37:50;97144.63;;;14.13
19102;BMP280;9683;49.028;12.064;2023-05-14T04:40:17;97135.78;;;14.12
19102;BMP280;9683;49.028;12.064;2023-05-14T04:42:44;97141.25;;;14.22
19102;BMP280;9683;49.028;12.064;2023-05-14T04:45:12;97145.84;;;14.27
19102;BMP280;9683;49.028;12.064;2023-05-14T04:47:40;97143.75;;;14.29
19102;BMP280;9683;49.028;12.064;2023-05-14T04:50:08;97142.94;;;14.29
19102;BMP280;9683;49.028;12.064;2023-05-14T04:52:35;97143.44;;;14.26
19102;BMP280;9683;49.028;12.064;2023-05-14T04:55:01;97131.56;;;14.16
19102;BMP280;9683;49.028;12.064;2023-05-14T04:57:28;97139.13;;;14.24
19102;BMP280;9683;49.028;12.064;2023-05-14T04:59:55;97142.13;;;14.28
19102;BMP280;9683;49.028;12.064;2023-05-14T05:02:23;97127.84;;;14.22
19102;BMP280;9683;49.028;12.064;2023-05-14T05:04:49;97146.25;;;14.36
19102;BMP280;9683;49.028;12.064;2023-05-14T05:07:16;97149.81;;;14.41
19102;BMP280;9683;49.028;12.064;2023-05-14T05:09:45;97138.56;;;14.39
19102;BMP280;9683;49.028;12.064;2023-05-14T05:12:11;97145.88;;;14.49
19102;BMP280;9683;49.028;12.064;2023-05-14T05:14:38;97147.00;;;14.53
19102;BMP280;9683;49.028;12.064;2023-05-14T05:17:05;97147.88;;;14.58
19102;BMP280;9683;49.028;12.064;2023-05-14T05:19:33;97114.19;;;14.41
19102;BMP280;9683;49.028;12.064;2023-05-14T05:22:00;97144.97;;;14.60
19102;BMP280;9683;49.028;12.064;2023-05-14T05:24:26;97150.63;;;14.63
19102;BMP280;9683;49.028;12.064;2023-05-14T05:26:53;97129.94;;;14.59
19102;BMP280;9683;49.028;12.064;2023-05-14T05:29:20;97137.53;;;14.67
19102;BMP280;9683;49.028;12.064;2023-05-14T05:31:47;97143.19;;;14.71
19102;BMP280;9683;49.028;12.064;2023-05-14T05:34:14;97138.41;;;14.73
19102;BMP280;9683;49.028;12.064;2023-05-14T05:36:42;97140.31;;;14.77
19102;BMP280;9683;49.028;12.064;2023-05-14T05:39:08;97138.19;;;14.79
19102;BMP280;9683;49.028;12.064;2023-05-14T05:41:35;97133.69;;;14.85
19102;BMP280;9683;49.028;12.064;2023-05-14T05:44:01;97144.72;;;14.88
19102;BMP280;9683;49.028;12.064;2023-05-14T05:46:28;97147.69;;;14.92
19102;BMP280;9683;49.028;12.064;2023-05-14T05:48:55;97138.09;;;14.96
19102;BMP280;9683;49.028;12.064;2023-05-14T05:51:21;97137.34;;;15.00
19102;BMP280;9683;49.028;12.064;2023-05-14T05:53:49;97133.88;;;15.05
19102;BMP280;9683;49.028;12.064;2023-05-14T05:56:16;97129.06;;;15.07
19102;BMP280;9683;49.028;12.064;2023-05-14T05:58:43;97135.53;;;15.11
19102;BMP280;9683;49.028;12.064;2023-05-14T06:01:09;97136.66;;;15.15
19102;BMP280;9683;49.028;12.064;2023-05-14T06:03:36;97133.47;;;15.18
19102;BMP280;9683;49.028;12.064;2023-05-14T06:06:03;97132.97;;;15.21
19102;BMP280;9683;49.028;12.064;2023-05-14T06:08:29;97146.66;;;15.25
19102;BMP280;9683;49.028;12.064;2023-05-14T06:10:57;97140.53;;;15.29
19102;BMP280;9683;49.028;12.064;2023-05-14T06:13:24;97141.63;;;15.33
19102;BMP280;9683;49.028;12.064;2023-05-14T06:15:51;97140.88;;;15.38
19102;BMP280;9683;49.028;12.064;2023-05-14T06:18:17;97140.34;;;15.41
19102;BMP280;9683;49.028;12.064;2023-05-14T06:20:44;97131.81;;;15.49
19102;BMP280;9683;49.028;12.064;2023-05-14T06:23:10;97140.25;;;15.57
19102;BMP280;9683;49.028;12.064;2023-05-14T06:25:37;97139.22;;;15.64
19102;BMP280;9683;49.028;12.064;2023-05-14T06:28:05;97143.03;;;15.73
19102;BMP280;9683;49.028;12.064;2023-05-14T06:30:32;97131.19;;;15.64
19102;BMP280;9683;49.028;12.064;2023-05-14T06:32:58;97143.88;;;15.73
19102;BMP280;9683;49.028;12.064;2023-05-14T06:35:25;97144.16;;;15.77
19102;BMP280;9683;49.028;12.064;2023-05-14T06:37:51;97144.44;;;15.80
19102;BMP280;9683;49.028;12.064;2023-05-14T06:40:18;97145.00;;;15.82
19102;BMP280;9683;49.028;12.064;2023-05-14T06:42:44;97146.09;;;15.86
19102;BMP280;9683;49.028;12.064;2023-05-14T06:45:12;97146.38;;;15.90
19102;BMP280;9683;49.028;12.064;2023-05-14T06:47:39;97133.47;;;15.87
19102;BMP280;9683;49.028;12.064;2023-05-14T06:50:06;97146.69;;;15.98
19102;BMP280;9683;49.028;12.064;2023-05-14T06:52:33;97144.56;;;16.00
19102;BMP280;9683;49.028;12.064;2023-05-14T06:54:59;97137.06;;;16.02
19102;BMP280;9683;49.028;12.064;2023-05-14T06:57:26;97150.53;;;16.13
19102;BMP280;9683;49.028;12.064;2023-05-14T06:59:53;97122.84;;;16.07
19102;BMP280;9683;49.028;12.064;2023-05-14T07:02:21;97142.81;;;16.26
19102;BMP280;9683;49.028;12.064;2023-05-14T07:04:47;97146.59;;;16.30
19102;BMP280;9683;49.028;12.064;2023-05-14T07:07:14;97142.88;;;16.36
19102;BMP280;9683;49.028;12.064;2023-05-14T07:09:44;97149.03;;;16.42
19102;BMP280;9683;49.028;12.064;2023-05-14T07:12:11;97145.31;;;16.48
19102;BMP280;9683;49.028;12.064;2023-05-14T07:14:38;97117.91;;;16.41
19102;BMP280;9683;49.028;12.064;2023-05-14T07:17:04;97147.00;;;16.59
19102;BMP280;9683;49.028;12.064;2023-05-14T07:19:32;97139.75;;;16.65
19102;BMP280;9683;49.028;12.064;2023-05-14T07:21:59;97140.84;;;16.69
19102;BMP280;9683;49.028;12.064;2023-05-14T07:24:25;97116.94;;;16.62
19102;BMP280;9683;49.028;12.064;2023-05-14T07:26:52;97131.72;;;16.80
19102;BMP280;9683;49.028;12.064;2023-05-14T07:29:21;97130.13;;;16.84
19102;BMP280;9683;49.028;12.064;2023-05-14T07:31:49;97101.06;;;16.66
19102;BMP280;9683;49.028;12.064;2023-05-14T07:34:16;97085.75;;;16.71
19102;BMP280;9683;49.028;12.064;2023-05-14T07:36:44;97113.50;;;17.02
19102;BMP280;9683;49.028;12.064;2023-05-14T07:39:11;97120.75;;;17.07
19102;BMP280;9683;49.028;12.064;2023-05-14T07:41:38;97124.00;;;17.14
19102;BMP280;9683;49.028;12.064;2023-05-14T07:44:04;97125.34;;;17.16
19102;BMP280;9683;49.028;12.064;2023-05-14T07:46:31;97120.00;;;17.21
19102;BMP280;9683;49.028;12.064;2023-05-14T07:48:57;97119.44;;;17.24
19102;BMP280;9683;49.028;12.064;2023-05-14T07:51:24;97107.31;;;17.22
19102;BMP280;9683;49.028;12.064;2023-05-14T07:53:54;97118.34;;;17.35
19102;BMP280;9683;49.028;12.064;2023-05-14T07:56:20;97104.09;;;17.30
19102;BMP280;9683;49.028;12.064;2023-05-14T07:58:47;97107.84;;;17.39
19102;BMP280;9683;49.028;12.064;2023-05-14T08:01:14;97112.44;;;17.43
19102;BMP280;9683;49.028;12.064;2023-05-14T08:03:40;97113.78;;;17.46
19102;BMP280;9683;49.028;12.064;2023-05-14T08:06:07;97111.63;;;17.48
19102;BMP280;9683;49.028;12.064;2023-05-14T08:08:34;97107.31;;;17.52
19102;BMP280;9683;49.028;12.064;2023-05-14T08:11:02;97108.16;;;17.58
19102;BMP280;9683;49.028;12.064;2023-05-14T08:13:29;97109.78;;;17.59
19102;BMP280;9683;49.028;12.064;2023-05-14T08:15:56;97101.16;;;17.62
19102;BMP280;9683;49.028;12.064;2023-05-14T08:18:22;97096.84;;;17.66
19102;BMP280;9683;49.028;12.064;2023-05-14T08:20:49;97089.56;;;17.66
19102;BMP280;9683;49.028;12.064;2023-05-14T08:23:16;97088.75;;;17.66
19102;BMP280;9683;49.028;12.064;2023-05-14T08:25:43;97079.34;;;17.63
19102;BMP280;9683;49.028;12.064;2023-05-14T08:28:11;97077.44;;;17.69
19102;BMP280;9683;49.028;12.064;2023-05-14T08:30:37;97084.44;;;17.70
19102;BMP280;9683;49.028;12.064;2023-05-14T08:33:04;97078.00;;;17.71
19102;BMP280;9683;49.028;12.064;2023-05-14T08:35:30;97076.88;;;17.72
19102;BMP280;9683;49.028;12.064;2023-05-14T08:37:57;97076.63;;;17.73
19102;BMP280;9683;49.028;12.064;2023-05-14T08:40:24;97074.19;;;17.77
19102;BMP280;9683;49.028;12.064;2023-05-14T08:42:51;97070.69;;;17.81
19102;BMP280;9683;49.028;12.064;2023-05-14T08:45:23;97062.59;;;17.86
19102;BMP280;9683;49.028;12.064;2023-05-14T08:47:54;97060.72;;;17.87
19102;BMP280;9683;49.028;12.064;2023-05-14T08:50:21;97070.38;;;17.93
19102;BMP280;9683;49.028;12.064;2023-05-14T08:52:48;97046.19;;;17.83
19102;BMP280;9683;49.028;12.064;2023-05-14T08:55:14;97063.66;;;17.96
19102;BMP280;9683;49.028;12.064;2023-05-14T08:57:41;97056.91;;;17.98
19102;BMP280;9683;49.028;12.064;2023-05-14T09:00:08;97051.75;;;18.02
19102;BMP280;9683;49.028;12.064;2023-05-14T09:02:40;97054.44;;;18.07
19102;BMP280;9683;49.028;12.064;2023-05-14T09:05:08;97055.25;;;18.07
19102;BMP280;9683;49.028;12.064;2023-05-14T09:07:35;97046.34;;;18.07
19102;BMP280;9683;49.028;12.064;2023-05-14T09:10:02;97043.09;;;18.10
19102;BMP280;9683;49.028;12.064;2023-05-14T09:12:29;97039.88;;;18.13
19102;BMP280;9683;49.028;12.064;2023-05-14T09:14:56;97010.84;;;18.00
19102;BMP280;9683;49.028;12.064;2023-05-14T09:17:24;97019.41;;;18.12
19102;BMP280;9683;49.028;12.064;2023-05-14T09:19:52;97003.03;;;17.98
19102;BMP280;9683;49.028;12.064;2023-05-14T09:22:19;97021.84;;;18.13
19102;BMP280;9683;49.028;12.064;2023-05-14T09:25:00;97035.47;;;18.32
19102;BMP280;9683;49.028;12.064;2023-05-14T09:27:28;97038.41;;;18.36
19102;BMP280;9683;49.028;12.064;2023-05-14T09:29:55;97031.38;;;18.40
19102;BMP280;9683;49.028;12.064;2023-05-14T09:32:22;97032.72;;;18.42
19102;BMP280;9683;49.028;12.064;2023-05-14T09:34:48;97018.19;;;18.38
19102;BMP280;9683;49.028;12.064;2023-05-14T09:37:16;97037.25;;;18.52
19102;BMP280;9683;49.028;12.064;2023-05-14T09:39:43;97036.72;;;18.55
19102;BMP280;9683;49.028;12.064;2023-05-14T09:42:09;97024.84;;;18.56
19102;BMP280;9683;49.028;12.064;2023-05-14T09:44:36;97024.28;;;18.59
19102;BMP280;9683;49.028;12.064;2023-05-14T09:47:03;96999.53;;;18.52
19102;BMP280;9683;49.028;12.064;2023-05-14T09:49:30;97028.53;;;18.70
19102;BMP280;9683;49.028;12.064;2023-05-14T09:51:57;97020.66;;;18.73
19102;BMP280;9683;49.028;12.064;2023-05-14T09:54:25;97013.91;;;18.81
19102;BMP280;9683;49.028;12.064;2023-05-14T09:56:52;97018.16;;;18.87
19102;BMP280;9683;49.028;12.064;2023-05-14T09:59:19;97017.31;;;18.92
19102;BMP280;9683;49.028;12.064;2023-05-14T10:01:45;97013.19;;;18.99
19102;BMP280;9683;49.028;12.064;2023-05-14T10:04:12;97015.31;;;19.02
19102;BMP280;9683;49.028;12.064;2023-05-14T10:06:41;97005.53;;;19.11
19102;BMP280;9683;49.028;12.064;2023-05-14T10:09:11;97001.97;;;19.16
19102;BMP280;9683;49.028;12.064;2023-05-14T10:11:41;97003.78;;;19.26
19102;BMP280;9683;49.028;12.064;2023-05-14T10:14:12;96999.16;;;19.31
19102;BMP280;9683;49.028;12.064;2023-05-14T10:16:46;96999.38;;;19.35
19102;BMP280;9683;49.028;12.064;2023-05-14T10:19:14;96997.34;;;19.21
19102;BMP280;9683;49.028;12.064;2023-05-14T10:21:44;96989.84;;;19.18
19102;BMP280;9683;49.028;12.064;2023-05-14T10:24:11;96998.41;;;19.26
19102;BMP280;9683;49.028;12.064;2023-05-14T10:26:40;96992.97;;;19.31
19102;BMP280;9683;49.028;12.064;2023-05-14T10:29:08;96984.84;;;19.31
19102;BMP280;9683;49.028;12.064;2023-05-14T10:31:49;96988.06;;;19.33
19102;BMP280;9683;49.028;12.064;2023-05-14T10:34:35;96995.31;;;19.37
19102;BMP280;9683;49.028;12.064;2023-05-14T10:37:08;96991.78;;;19.37
19102;BMP280;9683;49.028;12.064;2023-05-14T10:39:42;96993.13;;;19.39
19102;BMP280;9683;49.028;12.064;2023-05-14T10:42:11;96992.56;;;19.42
19102;BMP280;9683;49.028;12.064;2023-05-14T10:44:44;96986.09;;;19.43
19102;BMP280;9683;49.028;12.064;2023-05-14T10:47:13;96986.34;;;19.47
19102;BMP280;9683;49.028;12.064;2023-05-14T10:49:40;96984.22;;;19.44
19102;BMP280;9683;49.028;12.064;2023-05-14T10:52:07;96982.38;;;19.34
19102;BMP280;9683;49.028;12.064;2023-05-14T10:54:34;96994.13;;;19.19
19102;BMP280;9683;49.028;12.064;2023-05-14T10:57:02;96992.53;;;19.18
19102;BMP280;9683;49.028;12.064;2023-05-14T10:59:32;96983.59;;;19.23
19102;BMP280;9683;49.028;12.064;2023-05-14T11:01:59;96982.25;;;19.20
19102;BMP280;9683;49.028;12.064;2023-05-14T11:04:26;96987.78;;;19.05
19102;BMP280;9683;49.028;12.064;2023-05-14T11:06:54;96988.63;;;19.01
19102;BMP280;9683;49.028;12.064;2023-05-14T11:09:22;96979.97;;;19.04
19102;BMP280;9683;49.028;12.064;2023-05-14T11:11:49;96966.03;;;18.97
19102;BMP280;9683;49.028;12.064;2023-05-14T11:14:18;96957.34;;;19.00
19102;BMP280;9683;49.028;12.064;2023-05-14T11:16:47;96971.78;;;19.14
19102;BMP280;9683;49.028;12.064;2023-05-14T11:19:13;96959.03;;;19.19
19102;BMP280;9683;49.028;12.064;2023-05-14T11:21:42;96964.16;;;19.21
19102;BMP280;9683;49.028;12.064;2023-05-14T11:24:08;96959.53;;;19.27
19102;BMP280;9683;49.028;12.064;2023-05-14T11:26:35;96954.88;;;19.32
19102;BMP280;9683;49.028;12.064;2023-05-14T11:29:03;96954.81;;;19.37
19102;BMP280;9683;49.028;12.064;2023-05-14T11:31:30;96949.72;;;19.36
19102;BMP280;9683;49.028;12.064;2023-05-14T11:33:58;96952.66;;;19.39
19102;BMP280;9683;49.028;12.064;2023-05-14T11:36:25;96948.31;;;19.43
19102;BMP280;9683;49.028;12.064;2023-05-14T11:38:51;96945.84;;;19.47
19102;BMP280;9683;49.028;12.064;2023-05-14T11:41:18;96942.31;;;19.46
19102;BMP280;9683;49.028;12.064;2023-05-14T11:43:47;96938.22;;;19.49
19102;BMP280;9683;49.028;12.064;2023-05-14T11:46:17;96922.13;;;19.44
19102;BMP280;9683;49.028;12.064;2023-05-14T11:48:43;96935.50;;;19.54
19102;BMP280;9683;49.028;12.064;2023-05-14T11:51:11;96938.94;;;19.59
19102;BMP280;9683;49.028;12.064;2023-05-14T11:53:38;96932.69;;;19.64
19102;BMP280;9683;49.028;12.064;2023-05-14T11:56:05;96928.53;;;19.72
19102;BMP280;9683;49.028;12.064;2023-05-14T11:58:32;96923.81;;;19.82
19102;BMP280;9683;49.028;12.064;2023-05-14T12:00:58;96928.84;;;19.89
19102;BMP280;9683;49.028;12.064;2023-05-14T12:03:25;96921.47;;;19.94
19102;BMP280;9683;49.028;12.064;2023-05-14T12:05:55;96921.47;;;19.94
19102;BMP280;9683;49.028;12.064;2023-05-14T12:08:25;96913.22;;;19.86
19102;BMP280;9683;49.028;12.064;2023-05-14T12:10:52;96907.81;;;19.86
19102;BMP280;9683;49.028;12.064;2023-05-14T12:13:19;96909.88;;;19.94
19102;BMP280;9683;49.028;12.064;2023-05-14T12:15:45;96906.78;;;20.00
19102;BMP280;9683;49.028;12.064;2023-05-14T12:18:13;96902.63;;;20.08
19102;BMP280;9683;49.028;12.064;2023-05-14T12:20:45;96892.84;;;20.12
19102;BMP280;9683;49.028;12.064;2023-05-14T12:23:12;96895.78;;;20.16
19102;BMP280;9683;49.028;12.064;2023-05-14T12:25:48;96896.19;;;20.23
19102;BMP280;9683;49.028;12.064;2023-05-14T12:28:15;96894.31;;;20.23
19102;BMP280;9683;49.028;12.064;2023-05-14T12:30:41;96892.69;;;20.22
19102;BMP280;9683;49.028;12.064;2023-05-14T12:33:08;96886.94;;;20.10
19102;BMP280;9683;49.028;12.064;2023-05-14T12:35:35;96883.56;;;19.99
19102;BMP280;9683;49.028;12.064;2023-05-14T12:38:01;96884.97;;;19.97
19102;BMP280;9683;49.028;12.064;2023-05-14T12:40:28;96880.38;;;19.97
19102;BMP280;9683;49.028;12.064;2023-05-14T12:42:56;96877.81;;;20.06
19102;BMP280;9683;49.028;12.064;2023-05-14T12:45:23;96875.69;;;20.03
19102;BMP280;9683;49.028;12.064;2023-05-14T12:47:49;96884.22;;;20.10
19102;BMP280;9683;49.028;12.064;2023-05-14T12:50:16;96869.63;;;20.11
19102;BMP280;9683;49.028;12.064;2023-05-14T12:52:42;96870.34;;;20.17
19102;BMP280;9683;49.028;12.064;2023-05-14T12:55:10;96864.78;;;20.08
19102;BMP280;9683;49.028;12.064;2023-05-14T12:57:37;96846.25;;;20.01
19102;BMP280;9683;49.028;12.064;2023-05-14T13:00:06;96862.00;;;20.13
19102;BMP280;9683;49.028;12.064;2023-05-14T13:02:35;96842.53;;;19.97
19102;BMP280;9683;49.028;12.064;2023-05-14T13:05:01;96855.31;;;20.10
19102;BMP280;9683;49.028;12.064;2023-05-14T13:07:28;96857.22;;;20.10
19102;BMP280;9683;49.028;12.064;2023-05-14T13:09:55;96855.91;;;20.07
19102;BMP280;9683;49.028;12.064;2023-05-14T13:12:22;96833.47;;;19.88
19102;BMP280;9683;49.028;12.064;2023-05-14T13:14:49;96847.41;;;19.95
19102;BMP280;9683;49.028;12.064;2023-05-14T13:17:17;96836.09;;;19.75
19102;BMP280;9683;49.028;12.064;2023-05-14T13:19:44;96841.19;;;19.57
19102;BMP280;9683;49.028;12.064;2023-05-14T13:22:10;96842.81;;;19.58
19102;BMP280;9683;49.028;12.064;2023-05-14T13:24:37;96845.94;;;19.65
19102;BMP280;9683;49.028;12.064;2023-05-14T13:27:04;96836.31;;;19.59
19102;BMP280;9683;49.028;12.064;2023-05-14T13:29:30;96842.38;;;19.70
19102;BMP280;9683;49.028;12.064;2023-05-14T13:31:57;96837.38;;;19.82
19102;BMP280;9683;49.028;12.064;2023-05-14T13:34:25;96836.19;;;19.88
19102;BMP280;9683;49.028;12.064;2023-05-14T13:36:51;96847.13;;;19.97
19102;BMP280;9683;49.028;12.064;2023-05-14T13:39:18;96855.09;;;20.07
19102;BMP280;9683;49.028;12.064;2023-05-14T13:41:47;96857.94;;;20.16
19102;BMP280;9683;49.028;12.064;2023-05-14T13:44:15;96856.75;;;20.22
19102;BMP280;9683;49.028;12.064;2023-05-14T13:46:41;96862.16;;;20.22
19102;BMP280;9683;49.028;12.064;2023-05-14T13:49:08;96863.34;;;20.16
19102;BMP280;9683;49.028;12.064;2023-05-14T13:51:36;96865.31;;;20.10
19102;BMP280;9683;49.028;12.064;2023-05-14T13:54:03;96864.66;;;19.99
19102;BMP280;9683;49.028;12.064;2023-05-14T13:56:30;96870.44;;;19.93
19102;BMP280;9683;49.028;12.064;2023-05-14T13:58:56;96878.91;;;19.86
19102;BMP280;9683;49.028;12.064;2023-05-14T14:01:23;96878.66;;;19.83
19102;BMP280;9683;49.028;12.064;2023-05-14T14:03:49;96894.38;;;19.81
19102;BMP280;9683;49.028;12.064;2023-05-14T14:06:16;96893.63;;;19.75
19102;BMP280;9683;49.028;12.064;2023-05-14T14:08:44;96898.00;;;19.71
19102;BMP280;9683;49.028;12.064;2023-05-14T14:11:11;96893.25;;;19.63